ACA557 KLAX-CYVR
Flight info
| Callsign | ACA557 |
|---|---|
| Flight time | N/A |
| Altitude | 36000 |
| Route | SUMMR2 SCTRR DCT SNS J126 SAC DCT LMT J65 SEA DCT PAE GRIZZ9 |
| Aircraft | B38M/M-SDE2E3FGHIRWXY/LB1 |
Departure
| Time | 2026-04-26 01:52 |
|---|---|
| Airport | Los Angeles International Airport (KLAX) |
Arrival
| Time | N/A |
|---|---|
| Airport | Vancouver International Airport (CYVR) |
| Time | Latitude | Longitude | Altitude | Speed | Heading |
|---|---|---|---|---|---|
| 2026-04-26 01:26 | 33.94107 | -118.40271 | 123 ft | 0 kts | 83° |
| 2026-04-26 01:37 | 33.94105 | -118.40286 | 123 ft | 2 kts | 83° |
| 2026-04-26 01:37 | 33.94104 | -118.40305 | 123 ft | 2 kts | 83° |
| 2026-04-26 01:37 | 33.94106 | -118.40321 | 123 ft | 2 kts | 126° |
| 2026-04-26 01:37 | 33.94118 | -118.40333 | 123 ft | 1 kts | 166° |
| 2026-04-26 01:38 | 33.94123 | -118.40334 | 123 ft | 1 kts | 177° |
| 2026-04-26 01:38 | 33.94127 | -118.40334 | 123 ft | 0 kts | 173° |
| 2026-04-26 01:44 | 33.94097 | -118.40330 | 123 ft | 7 kts | 174° |
| 2026-04-26 01:44 | 33.94026 | -118.40320 | 123 ft | 12 kts | 173° |
| 2026-04-26 01:44 | 33.93925 | -118.40302 | 123 ft | 14 kts | 171° |
| 2026-04-26 01:44 | 33.93847 | -118.40325 | 123 ft | 12 kts | 258° |
| 2026-04-26 01:45 | 33.93834 | -118.40440 | 125 ft | 15 kts | 263° |
| 2026-04-26 01:45 | 33.93822 | -118.40583 | 126 ft | 18 kts | 264° |
| 2026-04-26 01:45 | 33.93808 | -118.40713 | 127 ft | 12 kts | 262° |
| 2026-04-26 01:45 | 33.93792 | -118.40836 | 128 ft | 16 kts | 262° |
| 2026-04-26 01:46 | 33.93777 | -118.40993 | 128 ft | 20 kts | 263° |
| 2026-04-26 01:46 | 33.93788 | -118.41144 | 128 ft | 19 kts | 326° |
| 2026-04-26 01:46 | 33.93938 | -118.41177 | 127 ft | 22 kts | 353° |
| 2026-04-26 01:46 | 33.94079 | -118.41197 | 126 ft | 21 kts | 352° |
| 2026-04-26 01:47 | 33.94230 | -118.41226 | 125 ft | 22 kts | 350° |
| 2026-04-26 01:47 | 33.94384 | -118.41249 | 124 ft | 18 kts | 0° |
| 2026-04-26 01:47 | 33.94493 | -118.41257 | 124 ft | 16 kts | 353° |
| 2026-04-26 01:47 | 33.94608 | -118.41273 | 124 ft | 17 kts | 353° |
| 2026-04-26 01:48 | 33.94714 | -118.41290 | 124 ft | 9 kts | 353° |
| 2026-04-26 01:48 | 33.94783 | -118.41282 | 124 ft | 11 kts | 36° |
| 2026-04-26 01:48 | 33.94808 | -118.41174 | 124 ft | 16 kts | 83° |
| 2026-04-26 01:48 | 33.94823 | -118.41016 | 125 ft | 21 kts | 84° |
| 2026-04-26 01:49 | 33.94841 | -118.40834 | 124 ft | 23 kts | 83° |
| 2026-04-26 01:49 | 33.94861 | -118.40649 | 124 ft | 22 kts | 82° |
| 2026-04-26 01:49 | 33.94879 | -118.40469 | 122 ft | 21 kts | 83° |
| 2026-04-26 01:49 | 33.94898 | -118.40292 | 121 ft | 19 kts | 84° |
| 2026-04-26 01:50 | 33.94904 | -118.40231 | 121 ft | 5 kts | 84° |
| 2026-04-26 01:50 | 33.94922 | -118.40188 | 120 ft | 0 kts | 32° |
| 2026-04-26 01:51 | 33.94934 | -118.40183 | 120 ft | 6 kts | 16° |
| 2026-04-26 01:51 | 33.95005 | -118.40202 | 120 ft | 15 kts | 306° |
| 2026-04-26 01:51 | 33.94989 | -118.40482 | 122 ft | 64 kts | 262° |
| 2026-04-26 01:52 | 33.94906 | -118.41273 | 125 ft | 124 kts | 263° |
| 2026-04-26 01:52 | 33.94783 | -118.42509 | 181 ft | 165 kts | 263° |
| 2026-04-26 01:52 | 33.94681 | -118.43845 | 895 ft | 160 kts | 262° |
| 2026-04-26 01:52 | 33.94548 | -118.45189 | 1469 ft | 169 kts | 262° |
| 2026-04-26 01:53 | 33.94406 | -118.46638 | 1947 ft | 184 kts | 264° |
| 2026-04-26 01:53 | 33.94333 | -118.48229 | 2488 ft | 197 kts | 267° |
| 2026-04-26 01:53 | 33.94290 | -118.49931 | 3010 ft | 214 kts | 268° |
| 2026-04-26 01:53 | 33.94206 | -118.51759 | 3598 ft | 230 kts | 265° |
| 2026-04-26 01:54 | 33.94052 | -118.53709 | 4284 ft | 242 kts | 264° |
| 2026-04-26 01:54 | 33.93875 | -118.55804 | 4957 ft | 256 kts | 264° |
| 2026-04-26 01:54 | 33.93702 | -118.57923 | 5876 ft | 258 kts | 264° |
| 2026-04-26 01:54 | 33.93531 | -118.60062 | 6933 ft | 260 kts | 264° |
| 2026-04-26 01:55 | 33.93361 | -118.62209 | 7913 ft | 264 kts | 264° |
| 2026-04-26 01:55 | 33.93187 | -118.64391 | 8908 ft | 265 kts | 264° |
| 2026-04-26 01:55 | 33.93015 | -118.66582 | 9896 ft | 267 kts | 263° |
| 2026-04-26 01:55 | 33.92840 | -118.68821 | 10701 ft | 275 kts | 263° |
| 2026-04-26 01:56 | 33.92658 | -118.71134 | 11309 ft | 288 kts | 263° |
| 2026-04-26 01:56 | 33.92463 | -118.73611 | 11843 ft | 304 kts | 263° |
| 2026-04-26 01:56 | 33.92255 | -118.76226 | 11973 ft | 323 kts | 263° |
| 2026-04-26 01:56 | 33.92043 | -118.78925 | 11979 ft | 330 kts | 263° |
| 2026-04-26 01:57 | 33.91827 | -118.81686 | 11972 ft | 330 kts | 263° |
| 2026-04-26 01:57 | 33.91707 | -118.84439 | 12017 ft | 338 kts | 268° |
| 2026-04-26 01:57 | 33.91744 | -118.87271 | 12992 ft | 336 kts | 270° |
| 2026-04-26 01:57 | 33.91842 | -118.90018 | 13937 ft | 333 kts | 270° |
| 2026-04-26 01:58 | 33.91951 | -118.92812 | 14720 ft | 335 kts | 270° |
| 2026-04-26 01:58 | 33.92052 | -118.95628 | 15285 ft | 343 kts | 269° |
| 2026-04-26 01:58 | 33.92174 | -118.98520 | 15878 ft | 348 kts | 272° |
| 2026-04-26 01:58 | 33.92634 | -119.01367 | 16442 ft | 356 kts | 283° |
| 2026-04-26 01:59 | 33.93593 | -119.04166 | 17029 ft | 363 kts | 292° |
| 2026-04-26 01:59 | 33.94836 | -119.06835 | 17607 ft | 370 kts | 296° |
| 2026-04-26 01:59 | 33.96188 | -119.09464 | 18182 ft | 374 kts | 297° |
| 2026-04-26 01:59 | 33.97576 | -119.12094 | 18750 ft | 377 kts | 297° |
| 2026-04-26 02:00 | 33.99000 | -119.14759 | 19330 ft | 380 kts | 298° |
| 2026-04-26 02:00 | 34.00589 | -119.17326 | 19905 ft | 386 kts | 304° |
| 2026-04-26 02:00 | 34.02438 | -119.19675 | 20453 ft | 394 kts | 311° |
| 2026-04-26 02:00 | 34.04554 | -119.21817 | 20993 ft | 401 kts | 316° |
| 2026-04-26 02:01 | 34.06793 | -119.23824 | 21521 ft | 405 kts | 318° |
| 2026-04-26 02:01 | 34.09089 | -119.25797 | 22053 ft | 407 kts | 318° |
| 2026-04-26 02:01 | 34.11425 | -119.27800 | 22594 ft | 409 kts | 318° |
| 2026-04-26 02:01 | 34.13749 | -119.29794 | 23112 ft | 411 kts | 318° |
| 2026-04-26 02:02 | 34.16082 | -119.31794 | 23617 ft | 413 kts | 318° |
| 2026-04-26 02:02 | 34.18438 | -119.33811 | 24096 ft | 415 kts | 318° |
| 2026-04-26 02:02 | 34.20781 | -119.35815 | 24564 ft | 416 kts | 318° |
| 2026-04-26 02:02 | 34.23159 | -119.37849 | 25018 ft | 418 kts | 319° |
| 2026-04-26 02:03 | 34.25524 | -119.39872 | 25434 ft | 421 kts | 318° |
| 2026-04-26 02:03 | 34.27909 | -119.41913 | 25843 ft | 423 kts | 318° |
| 2026-04-26 02:03 | 34.30326 | -119.43983 | 26231 ft | 426 kts | 318° |
| 2026-04-26 02:03 | 34.32752 | -119.46063 | 26403 ft | 434 kts | 319° |
| 2026-04-26 02:04 | 34.35250 | -119.48209 | 26539 ft | 440 kts | 319° |
| 2026-04-26 02:04 | 34.37755 | -119.50356 | 26866 ft | 441 kts | 319° |
| 2026-04-26 02:04 | 34.40236 | -119.52481 | 27157 ft | 445 kts | 319° |
| 2026-04-26 02:04 | 34.42760 | -119.54675 | 27455 ft | 446 kts | 318° |
| 2026-04-26 02:05 | 34.45254 | -119.56951 | 27751 ft | 447 kts | 316° |